sensor_id;sensor_type;location;lat;lon;timestamp;pressure;altitude;pressure_sealevel;temperature
20733;BMP180;10527;52.124;5.196;2023-12-20T00:01:28;101401.00;;;18.30
20733;BMP180;10527;52.124;5.196;2023-12-20T00:03:55;101399.00;;;18.30
20733;BMP180;10527;52.124;5.196;2023-12-20T00:06:23;101402.00;;;18.30
20733;BMP180;10527;52.124;5.196;2023-12-20T00:08:51;101399.00;;;18.30
20733;BMP180;10527;52.124;5.196;2023-12-20T00:11:18;101403.00;;;18.20
20733;BMP180;10527;52.124;5.196;2023-12-20T00:13:46;101388.00;;;18.20
20733;BMP180;10527;52.124;5.196;2023-12-20T00:16:18;101388.00;;;18.20
20733;BMP180;10527;52.124;5.196;2023-12-20T00:18:45;101396.00;;;18.20
20733;BMP180;10527;52.124;5.196;2023-12-20T00:21:13;101392.00;;;18.20
20733;BMP180;10527;52.124;5.196;2023-12-20T00:23:40;101380.00;;;18.20
20733;BMP180;10527;52.124;5.196;2023-12-20T00:26:07;101375.00;;;18.20
20733;BMP180;10527;52.124;5.196;2023-12-20T00:28:35;101380.00;;;18.20
20733;BMP180;10527;52.124;5.196;2023-12-20T00:31:03;101379.00;;;18.10
20733;BMP180;10527;52.124;5.196;2023-12-20T00:33:30;101387.00;;;18.10
20733;BMP180;10527;52.124;5.196;2023-12-20T00:35:58;101390.00;;;18.10
20733;BMP180;10527;52.124;5.196;2023-12-20T00:38:26;101394.00;;;18.10
20733;BMP180;10527;52.124;5.196;2023-12-20T00:40:53;101397.00;;;18.10
20733;BMP180;10527;52.124;5.196;2023-12-20T00:43:21;101396.00;;;18.10
20733;BMP180;10527;52.124;5.196;2023-12-20T00:45:48;101387.00;;;18.10
20733;BMP180;10527;52.124;5.196;2023-12-20T00:48:16;101392.00;;;18.00
20733;BMP180;10527;52.124;5.196;2023-12-20T00:50:43;101386.00;;;18.00
20733;BMP180;10527;52.124;5.196;2023-12-20T00:53:11;101387.00;;;18.00
20733;BMP180;10527;52.124;5.196;2023-12-20T00:55:38;101381.00;;;18.00
20733;BMP180;10527;52.124;5.196;2023-12-20T00:58:06;101381.00;;;18.00
20733;BMP180;10527;52.124;5.196;2023-12-20T01:00:33;101385.00;;;18.00
20733;BMP180;10527;52.124;5.196;2023-12-20T01:03:01;101393.00;;;18.00
20733;BMP180;10527;52.124;5.196;2023-12-20T01:05:28;101375.00;;;18.00
20733;BMP180;10527;52.124;5.196;2023-12-20T01:07:56;101374.00;;;18.00
20733;BMP180;10527;52.124;5.196;2023-12-20T01:10:23;101375.00;;;18.00
20733;BMP180;10527;52.124;5.196;2023-12-20T01:12:51;101370.00;;;18.00
20733;BMP180;10527;52.124;5.196;2023-12-20T01:15:18;101380.00;;;18.00
20733;BMP180;10527;52.124;5.196;2023-12-20T01:17:45;101371.00;;;18.00
20733;BMP180;10527;52.124;5.196;2023-12-20T01:20:14;101392.00;;;18.00
20733;BMP180;10527;52.124;5.196;2023-12-20T01:22:41;101396.00;;;18.00
20733;BMP180;10527;52.124;5.196;2023-12-20T01:25:10;101399.00;;;18.10
20733;BMP180;10527;52.124;5.196;2023-12-20T01:27:37;101398.00;;;18.10
20733;BMP180;10527;52.124;5.196;2023-12-20T01:30:05;101390.00;;;18.10
20733;BMP180;10527;52.124;5.196;2023-12-20T01:32:33;101389.00;;;18.10
20733;BMP180;10527;52.124;5.196;2023-12-20T01:35:01;101385.00;;;18.10
20733;BMP180;10527;52.124;5.196;2023-12-20T01:37:29;101378.00;;;18.10
20733;BMP180;10527;52.124;5.196;2023-12-20T01:39:57;101374.00;;;18.10
20733;BMP180;10527;52.124;5.196;2023-12-20T01:42:24;101369.00;;;18.10
20733;BMP180;10527;52.124;5.196;2023-12-20T01:44:51;101364.00;;;18.10
20733;BMP180;10527;52.124;5.196;2023-12-20T01:47:19;101379.00;;;18.10
20733;BMP180;10527;52.124;5.196;2023-12-20T01:49:49;101375.00;;;18.10
20733;BMP180;10527;52.124;5.196;2023-12-20T01:52:18;101379.00;;;18.10
20733;BMP180;10527;52.124;5.196;2023-12-20T01:54:48;101378.00;;;18.10
20733;BMP180;10527;52.124;5.196;2023-12-20T01:57:16;101372.00;;;18.10
20733;BMP180;10527;52.124;5.196;2023-12-20T01:59:44;101372.00;;;18.10
20733;BMP180;10527;52.124;5.196;2023-12-20T02:02:12;101381.00;;;18.10
20733;BMP180;10527;52.124;5.196;2023-12-20T02:04:40;101377.00;;;18.10
20733;BMP180;10527;52.124;5.196;2023-12-20T02:07:07;101376.00;;;18.10
20733;BMP180;10527;52.124;5.196;2023-12-20T02:09:36;101379.00;;;18.10
20733;BMP180;10527;52.124;5.196;2023-12-20T02:12:06;101374.00;;;18.10
20733;BMP180;10527;52.124;5.196;2023-12-20T02:14:33;101370.00;;;18.10
20733;BMP180;10527;52.124;5.196;2023-12-20T02:17:01;101382.00;;;18.20
20733;BMP180;10527;52.124;5.196;2023-12-20T02:19:28;101379.00;;;18.20
20733;BMP180;10527;52.124;5.196;2023-12-20T02:22:10;101372.00;;;18.20
20733;BMP180;10527;52.124;5.196;2023-12-20T02:24:38;101372.00;;;18.20
20733;BMP180;10527;52.124;5.196;2023-12-20T02:27:07;101366.00;;;18.20
20733;BMP180;10527;52.124;5.196;2023-12-20T02:29:35;101363.00;;;18.20
20733;BMP180;10527;52.124;5.196;2023-12-20T02:32:03;101365.00;;;18.20
20733;BMP180;10527;52.124;5.196;2023-12-20T02:34:30;101361.00;;;18.30
20733;BMP180;10527;52.124;5.196;2023-12-20T02:36:58;101374.00;;;18.30
20733;BMP180;10527;52.124;5.196;2023-12-20T02:39:26;101367.00;;;18.30
20733;BMP180;10527;52.124;5.196;2023-12-20T02:41:54;101364.00;;;18.30
20733;BMP180;10527;52.124;5.196;2023-12-20T02:44:21;101363.00;;;18.30
20733;BMP180;10527;52.124;5.196;2023-12-20T02:46:49;101364.00;;;18.30
20733;BMP180;10527;52.124;5.196;2023-12-20T02:49:16;101356.00;;;18.30
20733;BMP180;10527;52.124;5.196;2023-12-20T02:51:44;101356.00;;;18.30
20733;BMP180;10527;52.124;5.196;2023-12-20T02:54:11;101360.00;;;18.30
20733;BMP180;10527;52.124;5.196;2023-12-20T02:56:39;101357.00;;;18.30
20733;BMP180;10527;52.124;5.196;2023-12-20T02:59:06;101339.00;;;18.30
20733;BMP180;10527;52.124;5.196;2023-12-20T03:01:45;101338.00;;;18.40
20733;BMP180;10527;52.124;5.196;2023-12-20T03:04:13;101334.00;;;18.40
20733;BMP180;10527;52.124;5.196;2023-12-20T03:06:41;101326.00;;;18.40
20733;BMP180;10527;52.124;5.196;2023-12-20T03:09:09;101325.00;;;18.40
20733;BMP180;10527;52.124;5.196;2023-12-20T03:11:36;101322.00;;;18.40
20733;BMP180;10527;52.124;5.196;2023-12-20T03:14:03;101334.00;;;18.40
20733;BMP180;10527;52.124;5.196;2023-12-20T03:16:31;101320.00;;;18.40
20733;BMP180;10527;52.124;5.196;2023-12-20T03:19:03;101323.00;;;18.40
20733;BMP180;10527;52.124;5.196;2023-12-20T03:21:31;101323.00;;;18.40
20733;BMP180;10527;52.124;5.196;2023-12-20T03:23:58;101322.00;;;18.40
20733;BMP180;10527;52.124;5.196;2023-12-20T03:26:26;101325.00;;;18.40
20733;BMP180;10527;52.124;5.196;2023-12-20T03:28:53;101328.00;;;18.40
20733;BMP180;10527;52.124;5.196;2023-12-20T03:31:20;101325.00;;;18.40
20733;BMP180;10527;52.124;5.196;2023-12-20T03:33:49;101326.00;;;18.40
20733;BMP180;10527;52.124;5.196;2023-12-20T03:36:18;101336.00;;;18.40
20733;BMP180;10527;52.124;5.196;2023-12-20T03:38:46;101331.00;;;18.40
20733;BMP180;10527;52.124;5.196;2023-12-20T03:41:14;101319.00;;;18.40
20733;BMP180;10527;52.124;5.196;2023-12-20T03:43:42;101325.00;;;18.40
20733;BMP180;10527;52.124;5.196;2023-12-20T03:46:09;101325.00;;;18.40
20733;BMP180;10527;52.124;5.196;2023-12-20T03:48:37;101326.00;;;18.40
20733;BMP180;10527;52.124;5.196;2023-12-20T03:51:05;101332.00;;;18.40
20733;BMP180;10527;52.124;5.196;2023-12-20T03:53:32;101327.00;;;18.40
20733;BMP180;10527;52.124;5.196;2023-12-20T03:55:59;101335.00;;;18.40
20733;BMP180;10527;52.124;5.196;2023-12-20T03:58:27;101330.00;;;18.40
20733;BMP180;10527;52.124;5.196;2023-12-20T04:00:54;101339.00;;;18.40
20733;BMP180;10527;52.124;5.196;2023-12-20T04:03:22;101330.00;;;18.40
20733;BMP180;10527;52.124;5.196;2023-12-20T04:05:49;101334.00;;;18.40
20733;BMP180;10527;52.124;5.196;2023-12-20T04:08:17;101341.00;;;18.40
20733;BMP180;10527;52.124;5.196;2023-12-20T04:10:44;101330.00;;;18.40
20733;BMP180;10527;52.124;5.196;2023-12-20T04:13:12;101325.00;;;18.30
20733;BMP180;10527;52.124;5.196;2023-12-20T04:15:39;101327.00;;;18.40
20733;BMP180;10527;52.124;5.196;2023-12-20T04:18:07;101321.00;;;18.30
20733;BMP180;10527;52.124;5.196;2023-12-20T04:20:34;101331.00;;;18.40
20733;BMP180;10527;52.124;5.196;2023-12-20T04:23:02;101326.00;;;18.40
20733;BMP180;10527;52.124;5.196;2023-12-20T04:25:29;101324.00;;;18.40
20733;BMP180;10527;52.124;5.196;2023-12-20T04:27:57;101330.00;;;18.40
20733;BMP180;10527;52.124;5.196;2023-12-20T04:30:24;101326.00;;;18.40
20733;BMP180;10527;52.124;5.196;2023-12-20T04:32:52;101319.00;;;18.50
20733;BMP180;10527;52.124;5.196;2023-12-20T04:35:20;101310.00;;;18.50
20733;BMP180;10527;52.124;5.196;2023-12-20T04:37:47;101309.00;;;18.50
20733;BMP180;10527;52.124;5.196;2023-12-20T04:40:16;101318.00;;;18.50
20733;BMP180;10527;52.124;5.196;2023-12-20T04:42:44;101326.00;;;18.50
20733;BMP180;10527;52.124;5.196;2023-12-20T04:45:11;101314.00;;;18.50
20733;BMP180;10527;52.124;5.196;2023-12-20T04:47:42;101313.00;;;18.60
20733;BMP180;10527;52.124;5.196;2023-12-20T04:50:10;101314.00;;;18.60
20733;BMP180;10527;52.124;5.196;2023-12-20T04:52:41;101310.00;;;18.60
20733;BMP180;10527;52.124;5.196;2023-12-20T04:55:08;101315.00;;;18.60
20733;BMP180;10527;52.124;5.196;2023-12-20T04:57:36;101316.00;;;18.60
20733;BMP180;10527;52.124;5.196;2023-12-20T05:00:04;101315.00;;;18.60
20733;BMP180;10527;52.124;5.196;2023-12-20T05:02:32;101306.00;;;18.60
20733;BMP180;10527;52.124;5.196;2023-12-20T05:04:59;101306.00;;;18.60
20733;BMP180;10527;52.124;5.196;2023-12-20T05:07:26;101314.00;;;18.60
20733;BMP180;10527;52.124;5.196;2023-12-20T05:09:54;101308.00;;;18.70
20733;BMP180;10527;52.124;5.196;2023-12-20T05:12:22;101314.00;;;18.70
20733;BMP180;10527;52.124;5.196;2023-12-20T05:14:49;101304.00;;;18.70
20733;BMP180;10527;52.124;5.196;2023-12-20T05:17:16;101306.00;;;18.70
20733;BMP180;10527;52.124;5.196;2023-12-20T05:19:44;101302.00;;;18.70
20733;BMP180;10527;52.124;5.196;2023-12-20T05:22:11;101317.00;;;18.70
20733;BMP180;10527;52.124;5.196;2023-12-20T05:24:39;101308.00;;;18.70
20733;BMP180;10527;52.124;5.196;2023-12-20T05:27:06;101317.00;;;18.70
20733;BMP180;10527;52.124;5.196;2023-12-20T05:29:34;101313.00;;;18.70
20733;BMP180;10527;52.124;5.196;2023-12-20T05:32:02;101309.00;;;18.70
20733;BMP180;10527;52.124;5.196;2023-12-20T05:34:32;101311.00;;;18.60
20733;BMP180;10527;52.124;5.196;2023-12-20T05:36:59;101306.00;;;18.60
20733;BMP180;10527;52.124;5.196;2023-12-20T05:39:29;101302.00;;;18.60
20733;BMP180;10527;52.124;5.196;2023-12-20T05:41:58;101297.00;;;18.60
20733;BMP180;10527;52.124;5.196;2023-12-20T05:44:26;101311.00;;;18.60
20733;BMP180;10527;52.124;5.196;2023-12-20T05:46:54;101312.00;;;18.60
20733;BMP180;10527;52.124;5.196;2023-12-20T05:49:21;101316.00;;;18.60
20733;BMP180;10527;52.124;5.196;2023-12-20T05:51:49;101307.00;;;18.70
20733;BMP180;10527;52.124;5.196;2023-12-20T05:54:18;101309.00;;;18.70
20733;BMP180;10527;52.124;5.196;2023-12-20T05:56:46;101301.00;;;18.70
20733;BMP180;10527;52.124;5.196;2023-12-20T05:59:13;101302.00;;;18.70
20733;BMP180;10527;52.124;5.196;2023-12-20T06:01:41;101316.00;;;18.70
20733;BMP180;10527;52.124;5.196;2023-12-20T06:04:08;101297.00;;;18.70
20733;BMP180;10527;52.124;5.196;2023-12-20T06:06:41;101310.00;;;18.70
20733;BMP180;10527;52.124;5.196;2023-12-20T06:09:10;101313.00;;;18.70
20733;BMP180;10527;52.124;5.196;2023-12-20T06:11:37;101321.00;;;18.80
20733;BMP180;10527;52.124;5.196;2023-12-20T06:14:06;101306.00;;;18.80
20733;BMP180;10527;52.124;5.196;2023-12-20T06:16:33;101303.00;;;18.80
20733;BMP180;10527;52.124;5.196;2023-12-20T06:19:01;101305.00;;;18.80
20733;BMP180;10527;52.124;5.196;2023-12-20T06:21:29;101293.00;;;18.80
20733;BMP180;10527;52.124;5.196;2023-12-20T06:23:56;101297.00;;;18.80
20733;BMP180;10527;52.124;5.196;2023-12-20T06:26:23;101294.00;;;18.80
20733;BMP180;10527;52.124;5.196;2023-12-20T06:28:51;101309.00;;;18.80
20733;BMP180;10527;52.124;5.196;2023-12-20T06:31:18;101296.00;;;18.80
20733;BMP180;10527;52.124;5.196;2023-12-20T06:33:45;101302.00;;;18.80
20733;BMP180;10527;52.124;5.196;2023-12-20T06:36:13;101297.00;;;18.80
20733;BMP180;10527;52.124;5.196;2023-12-20T06:38:41;101297.00;;;18.80
20733;BMP180;10527;52.124;5.196;2023-12-20T06:41:13;101303.00;;;18.80
20733;BMP180;10527;52.124;5.196;2023-12-20T06:43:41;101300.00;;;18.80
20733;BMP180;10527;52.124;5.196;2023-12-20T06:46:16;101288.00;;;18.80
20733;BMP180;10527;52.124;5.196;2023-12-20T06:48:44;101296.00;;;18.80
20733;BMP180;10527;52.124;5.196;2023-12-20T06:51:15;101290.00;;;18.90
20733;BMP180;10527;52.124;5.196;2023-12-20T06:53:43;101287.00;;;18.90
20733;BMP180;10527;52.124;5.196;2023-12-20T06:56:11;101287.00;;;19.00
20733;BMP180;10527;52.124;5.196;2023-12-20T06:58:44;101298.00;;;19.00
20733;BMP180;10527;52.124;5.196;2023-12-20T07:01:16;101286.00;;;19.10
20733;BMP180;10527;52.124;5.196;2023-12-20T07:03:43;101288.00;;;19.10
20733;BMP180;10527;52.124;5.196;2023-12-20T07:06:11;101284.00;;;19.00
20733;BMP180;10527;52.124;5.196;2023-12-20T07:08:40;101300.00;;;19.00
20733;BMP180;10527;52.124;5.196;2023-12-20T07:11:08;101281.00;;;19.00
20733;BMP180;10527;52.124;5.196;2023-12-20T07:13:35;101285.00;;;19.00
20733;BMP180;10527;52.124;5.196;2023-12-20T07:16:03;101278.00;;;19.00
20733;BMP180;10527;52.124;5.196;2023-12-20T07:18:31;101272.00;;;19.00
20733;BMP180;10527;52.124;5.196;2023-12-20T07:20:58;101263.00;;;19.00
20733;BMP180;10527;52.124;5.196;2023-12-20T07:23:26;101258.00;;;19.00
20733;BMP180;10527;52.124;5.196;2023-12-20T07:25:54;101266.00;;;19.00
20733;BMP180;10527;52.124;5.196;2023-12-20T07:28:21;101260.00;;;19.00
20733;BMP180;10527;52.124;5.196;2023-12-20T07:30:49;101257.00;;;19.00
20733;BMP180;10527;52.124;5.196;2023-12-20T07:33:16;101259.00;;;19.00
20733;BMP180;10527;52.124;5.196;2023-12-20T07:35:50;101248.00;;;19.00
20733;BMP180;10527;52.124;5.196;2023-12-20T07:38:31;101245.00;;;19.00
20733;BMP180;10527;52.124;5.196;2023-12-20T07:40:58;101254.00;;;19.00
20733;BMP180;10527;52.124;5.196;2023-12-20T07:43:26;101254.00;;;19.00
20733;BMP180;10527;52.124;5.196;2023-12-20T07:45:53;101263.00;;;19.00
20733;BMP180;10527;52.124;5.196;2023-12-20T07:48:20;101269.00;;;19.00
20733;BMP180;10527;52.124;5.196;2023-12-20T07:50:48;101283.00;;;19.10
20733;BMP180;10527;52.124;5.196;2023-12-20T07:53:15;101278.00;;;19.00
20733;BMP180;10527;52.124;5.196;2023-12-20T07:55:43;101286.00;;;19.10
20733;BMP180;10527;52.124;5.196;2023-12-20T07:58:10;101286.00;;;19.10
20733;BMP180;10527;52.124;5.196;2023-12-20T08:00:38;101284.00;;;19.10
20733;BMP180;10527;52.124;5.196;2023-12-20T08:03:05;101288.00;;;19.10
20733;BMP180;10527;52.124;5.196;2023-12-20T08:05:33;101297.00;;;19.10
20733;BMP180;10527;52.124;5.196;2023-12-20T08:08:00;101304.00;;;19.10
20733;BMP180;10527;52.124;5.196;2023-12-20T08:10:27;101304.00;;;19.10
20733;BMP180;10527;52.124;5.196;2023-12-20T08:12:57;101303.00;;;19.10
20733;BMP180;10527;52.124;5.196;2023-12-20T08:15:24;101294.00;;;19.10
20733;BMP180;10527;52.124;5.196;2023-12-20T08:17:52;101289.00;;;19.10
20733;BMP180;10527;52.124;5.196;2023-12-20T08:20:20;101295.00;;;19.20
20733;BMP180;10527;52.124;5.196;2023-12-20T08:22:58;101295.00;;;19.20
20733;BMP180;10527;52.124;5.196;2023-12-20T08:25:26;101285.00;;;19.20
20733;BMP180;10527;52.124;5.196;2023-12-20T08:27:54;101287.00;;;19.20
20733;BMP180;10527;52.124;5.196;2023-12-20T08:30:22;101293.00;;;19.20
20733;BMP180;10527;52.124;5.196;2023-12-20T08:32:50;101273.00;;;19.20
20733;BMP180;10527;52.124;5.196;2023-12-20T08:35:17;101264.00;;;19.20
20733;BMP180;10527;52.124;5.196;2023-12-20T08:37:46;101272.00;;;19.20
20733;BMP180;10527;52.124;5.196;2023-12-20T08:40:13;101281.00;;;19.20
20733;BMP180;10527;52.124;5.196;2023-12-20T08:42:41;101272.00;;;19.20
20733;BMP180;10527;52.124;5.196;2023-12-20T08:45:09;101271.00;;;19.20
20733;BMP180;10527;52.124;5.196;2023-12-20T08:47:37;101278.00;;;19.20
20733;BMP180;10527;52.124;5.196;2023-12-20T08:50:05;101276.00;;;19.20
20733;BMP180;10527;52.124;5.196;2023-12-20T08:52:32;101280.00;;;19.20
20733;BMP180;10527;52.124;5.196;2023-12-20T08:55:00;101278.00;;;19.20
20733;BMP180;10527;52.124;5.196;2023-12-20T08:57:28;101280.00;;;19.30
20733;BMP180;10527;52.124;5.196;2023-12-20T08:59:56;101283.00;;;19.30
20733;BMP180;10527;52.124;5.196;2023-12-20T09:02:23;101283.00;;;19.30
20733;BMP180;10527;52.124;5.196;2023-12-20T09:04:51;101274.00;;;19.30
20733;BMP180;10527;52.124;5.196;2023-12-20T09:07:23;101276.00;;;19.30
20733;BMP180;10527;52.124;5.196;2023-12-20T09:09:51;101267.00;;;19.30
20733;BMP180;10527;52.124;5.196;2023-12-20T09:12:19;101272.00;;;19.30
20733;BMP180;10527;52.124;5.196;2023-12-20T09:14:51;101280.00;;;19.30
20733;BMP180;10527;52.124;5.196;2023-12-20T09:17:19;101282.00;;;19.30
20733;BMP180;10527;52.124;5.196;2023-12-20T09:19:48;101281.00;;;19.30
20733;BMP180;10527;52.124;5.196;2023-12-20T09:22:16;101279.00;;;19.30
20733;BMP180;10527;52.124;5.196;2023-12-20T09:24:43;101282.00;;;19.40
20733;BMP180;10527;52.124;5.196;2023-12-20T09:27:11;101281.00;;;19.40
20733;BMP180;10527;52.124;5.196;2023-12-20T09:29:38;101276.00;;;19.40
20733;BMP180;10527;52.124;5.196;2023-12-20T09:32:06;101271.00;;;19.40
20733;BMP180;10527;52.124;5.196;2023-12-20T09:34:33;101282.00;;;19.50
20733;BMP180;10527;52.124;5.196;2023-12-20T09:37:01;101272.00;;;19.50
20733;BMP180;10527;52.124;5.196;2023-12-20T09:39:30;101275.00;;;19.50
20733;BMP180;10527;52.124;5.196;2023-12-20T09:42:03;101270.00;;;19.50
20733;BMP180;10527;52.124;5.196;2023-12-20T09:44:32;101290.00;;;19.60
20733;BMP180;10527;52.124;5.196;2023-12-20T09:47:05;101294.00;;;19.50
20733;BMP180;10527;52.124;5.196;2023-12-20T09:49:35;101290.00;;;19.60
20733;BMP180;10527;52.124;5.196;2023-12-20T09:52:03;101284.00;;;19.60
20733;BMP180;10527;52.124;5.196;2023-12-20T09:54:32;101284.00;;;19.60
20733;BMP180;10527;52.124;5.196;2023-12-20T09:56:59;101288.00;;;19.60
20733;BMP180;10527;52.124;5.196;2023-12-20T09:59:27;101285.00;;;19.60
20733;BMP180;10527;52.124;5.196;2023-12-20T10:01:56;101300.00;;;19.60
20733;BMP180;10527;52.124;5.196;2023-12-20T10:04:26;101299.00;;;19.70
20733;BMP180;10527;52.124;5.196;2023-12-20T10:06:57;101298.00;;;19.70
20733;BMP180;10527;52.124;5.196;2023-12-20T10:09:25;101294.00;;;19.70
20733;BMP180;10527;52.124;5.196;2023-12-20T10:11:55;101310.00;;;19.70
20733;BMP180;10527;52.124;5.196;2023-12-20T10:14:24;101304.00;;;19.70
20733;BMP180;10527;52.124;5.196;2023-12-20T10:16:51;101298.00;;;19.70
20733;BMP180;10527;52.124;5.196;2023-12-20T10:19:20;101295.00;;;19.80
20733;BMP180;10527;52.124;5.196;2023-12-20T10:21:48;101296.00;;;19.80
20733;BMP180;10527;52.124;5.196;2023-12-20T10:24:20;101300.00;;;19.80
20733;BMP180;10527;52.124;5.196;2023-12-20T10:27:02;101302.00;;;19.80
20733;BMP180;10527;52.124;5.196;2023-12-20T10:29:35;101292.00;;;19.80
20733;BMP180;10527;52.124;5.196;2023-12-20T10:32:25;101284.00;;;19.80
20733;BMP180;10527;52.124;5.196;2023-12-20T10:34:54;101292.00;;;19.80
20733;BMP180;10527;52.124;5.196;2023-12-20T10:37:22;101294.00;;;19.80
20733;BMP180;10527;52.124;5.196;2023-12-20T10:39:52;101282.00;;;19.90
20733;BMP180;10527;52.124;5.196;2023-12-20T10:42:26;101293.00;;;19.90
20733;BMP180;10527;52.124;5.196;2023-12-20T10:44:54;101288.00;;;19.90
20733;BMP180;10527;52.124;5.196;2023-12-20T10:47:21;101290.00;;;19.90
20733;BMP180;10527;52.124;5.196;2023-12-20T10:49:50;101281.00;;;19.90
20733;BMP180;10527;52.124;5.196;2023-12-20T10:52:20;101278.00;;;20.00
20733;BMP180;10527;52.124;5.196;2023-12-20T10:54:49;101270.00;;;20.00
20733;BMP180;10527;52.124;5.196;2023-12-20T10:57:18;101278.00;;;20.00
20733;BMP180;10527;52.124;5.196;2023-12-20T10:59:49;101257.00;;;20.00
20733;BMP180;10527;52.124;5.196;2023-12-20T11:02:21;101257.00;;;20.10
20733;BMP180;10527;52.124;5.196;2023-12-20T11:11:28;101251.00;;;20.20
20733;BMP180;10527;52.124;5.196;2023-12-20T11:14:06;101249.00;;;20.20
20733;BMP180;10527;52.124;5.196;2023-12-20T11:16:39;101253.00;;;20.20
20733;BMP180;10527;52.124;5.196;2023-12-20T11:19:20;101243.00;;;20.30
20733;BMP180;10527;52.124;5.196;2023-12-20T11:21:48;101241.00;;;20.30
20733;BMP180;10527;52.124;5.196;2023-12-20T11:24:17;101245.00;;;20.30
20733;BMP180;10527;52.124;5.196;2023-12-20T11:26:48;101250.00;;;20.30
20733;BMP180;10527;52.124;5.196;2023-12-20T11:29:35;101247.00;;;20.30
20733;BMP180;10527;52.124;5.196;2023-12-20T11:32:03;101234.00;;;20.30
20733;BMP180;10527;52.124;5.196;2023-12-20T11:34:33;101254.00;;;20.30
20733;BMP180;10527;52.124;5.196;2023-12-20T11:37:03;101241.00;;;20.30
20733;BMP180;10527;52.124;5.196;2023-12-20T11:39:31;101240.00;;;20.30
20733;BMP180;10527;52.124;5.196;2023-12-20T11:42:05;101234.00;;;20.30
20733;BMP180;10527;52.124;5.196;2023-12-20T11:44:37;101232.00;;;20.30
20733;BMP180;10527;52.124;5.196;2023-12-20T11:47:04;101235.00;;;20.30
20733;BMP180;10527;52.124;5.196;2023-12-20T11:49:33;101222.00;;;20.30
20733;BMP180;10527;52.124;5.196;2023-12-20T11:52:01;101212.00;;;20.30
20733;BMP180;10527;52.124;5.196;2023-12-20T11:54:30;101200.00;;;20.30
20733;BMP180;10527;52.124;5.196;2023-12-20T11:56:58;101213.00;;;20.30
20733;BMP180;10527;52.124;5.196;2023-12-20T11:59:25;101209.00;;;20.40
20733;BMP180;10527;52.124;5.196;2023-12-20T12:01:53;101204.00;;;20.40
20733;BMP180;10527;52.124;5.196;2023-12-20T12:04:23;101202.00;;;20.40
20733;BMP180;10527;52.124;5.196;2023-12-20T12:06:51;101213.00;;;20.40
20733;BMP180;10527;52.124;5.196;2023-12-20T12:09:18;101223.00;;;20.40
20733;BMP180;10527;52.124;5.196;2023-12-20T12:11:46;101241.00;;;20.40
20733;BMP180;10527;52.124;5.196;2023-12-20T12:14:14;101233.00;;;20.40
20733;BMP180;10527;52.124;5.196;2023-12-20T12:16:44;101241.00;;;20.40
20733;BMP180;10527;52.124;5.196;2023-12-20T12:19:25;101225.00;;;20.40
20733;BMP180;10527;52.124;5.196;2023-12-20T12:22:19;101233.00;;;20.40
20733;BMP180;10527;52.124;5.196;2023-12-20T12:24:47;101229.00;;;20.40
20733;BMP180;10527;52.124;5.196;2023-12-20T12:27:16;101214.00;;;20.50
20733;BMP180;10527;52.124;5.196;2023-12-20T12:30:01;101209.00;;;20.50
20733;BMP180;10527;52.124;5.196;2023-12-20T12:32:30;101200.00;;;20.50
20733;BMP180;10527;52.124;5.196;2023-12-20T12:34:58;101200.00;;;20.50
20733;BMP180;10527;52.124;5.196;2023-12-20T12:37:25;101185.00;;;20.50
20733;BMP180;10527;52.124;5.196;2023-12-20T12:39:54;101197.00;;;20.50
20733;BMP180;10527;52.124;5.196;2023-12-20T12:42:22;101192.00;;;20.50
20733;BMP180;10527;52.124;5.196;2023-12-20T12:44:53;101185.00;;;20.40
20733;BMP180;10527;52.124;5.196;2023-12-20T12:47:20;101183.00;;;20.40
20733;BMP180;10527;52.124;5.196;2023-12-20T12:49:49;101188.00;;;20.40
20733;BMP180;10527;52.124;5.196;2023-12-20T12:52:16;101180.00;;;20.40
20733;BMP180;10527;52.124;5.196;2023-12-20T12:54:44;101178.00;;;20.40
20733;BMP180;10527;52.124;5.196;2023-12-20T12:57:13;101170.00;;;20.40
20733;BMP180;10527;52.124;5.196;2023-12-20T12:59:41;101171.00;;;20.40
20733;BMP180;10527;52.124;5.196;2023-12-20T13:02:10;101164.00;;;20.40
20733;BMP180;10527;52.124;5.196;2023-12-20T13:04:38;101161.00;;;20.40
20733;BMP180;10527;52.124;5.196;2023-12-20T13:07:07;101156.00;;;20.40
20733;BMP180;10527;52.124;5.196;2023-12-20T13:09:34;101156.00;;;20.40
20733;BMP180;10527;52.124;5.196;2023-12-20T13:12:02;101146.00;;;20.40
20733;BMP180;10527;52.124;5.196;2023-12-20T13:14:34;101144.00;;;20.40
20733;BMP180;10527;52.124;5.196;2023-12-20T13:17:05;101124.00;;;20.40
20733;BMP180;10527;52.124;5.196;2023-12-20T13:19:33;101128.00;;;20.40
20733;BMP180;10527;52.124;5.196;2023-12-20T13:22:01;101123.00;;;20.40
20733;BMP180;10527;52.124;5.196;2023-12-20T13:24:28;101117.00;;;20.40
20733;BMP180;10527;52.124;5.196;2023-12-20T13:26:56;101149.00;;;20.40
20733;BMP180;10527;52.124;5.196;2023-12-20T13:29:24;101121.00;;;20.40
20733;BMP180;10527;52.124;5.196;2023-12-20T13:31:54;101112.00;;;20.40
20733;BMP180;10527;52.124;5.196;2023-12-20T13:34:22;101111.00;;;20.50
20733;BMP180;10527;52.124;5.196;2023-12-20T13:36:50;101115.00;;;20.50
20733;BMP180;10527;52.124;5.196;2023-12-20T13:39:18;101113.00;;;20.50
20733;BMP180;10527;52.124;5.196;2023-12-20T13:41:46;101110.00;;;20.50
20733;BMP180;10527;52.124;5.196;2023-12-20T13:44:13;101099.00;;;20.50
20733;BMP180;10527;52.124;5.196;2023-12-20T13:46:41;101111.00;;;20.50
20733;BMP180;10527;52.124;5.196;2023-12-20T13:49:09;101099.00;;;20.50
20733;BMP180;10527;52.124;5.196;2023-12-20T13:51:36;101096.00;;;20.50
20733;BMP180;10527;52.124;5.196;2023-12-20T13:54:04;101096.00;;;20.50
20733;BMP180;10527;52.124;5.196;2023-12-20T13:56:32;101094.00;;;20.50
20733;BMP180;10527;52.124;5.196;2023-12-20T13:59:13;101093.00;;;20.50
20733;BMP180;10527;52.124;5.196;2023-12-20T14:01:42;101089.00;;;20.50
20733;BMP180;10527;52.124;5.196;2023-12-20T14:04:09;101082.00;;;20.60
20733;BMP180;10527;52.124;5.196;2023-12-20T14:06:58;101085.00;;;20.60
20733;BMP180;10527;52.124;5.196;2023-12-20T14:09:25;101082.00;;;20.60
20733;BMP180;10527;52.124;5.196;2023-12-20T14:11:53;101091.00;;;20.60